Time;durP1;ratioP1;P1;durP2;ratioP2;P2;SDS_P1;SDS_P2;PMS_P1;PMS_P2;Temp;Humidity;BMP_temperature;BMP_pressure;BME280_temperature;BME280_humidity;BME280_pressure;Samples;Min_cycle;Max_cycle;Signal;HPM_P1;HPM_P2
2022/12/25 00:03:09;;;;;;;18.63;5.78;;;;;;;8.65;100.00;100523.38;8348040;28;20084;-51
2022/12/25 00:07:09;;;;;;;13.50;5.63;;;;;;;8.83;100.00;100526.34;8353236;28;20135;-52
2022/12/25 00:11:12;;;;;;;19.17;5.72;;;;;;;8.90;100.00;100527.53;8353378;28;20462;-53
2022/12/25 00:15:13;;;;;;;13.38;6.00;;;;;;;8.97;100.00;100523.34;8353972;28;20037;-55
2022/12/25 00:19:13;;;;;;;12.23;5.03;;;;;;;9.03;100.00;100522.84;8353513;28;20080;-52
2022/12/25 00:23:14;;;;;;;20.55;5.88;;;;;;;9.07;100.00;100518.88;8350218;28;20091;-52
2022/12/25 00:27:15;;;;;;;15.00;5.95;;;;;;;9.08;100.00;100520.59;8352068;28;20040;-53
2022/12/25 00:31:16;;;;;;;16.67;5.30;;;;;;;8.96;100.00;100516.22;8350018;28;20040;-53
2022/12/25 00:35:17;;;;;;;19.63;5.78;;;;;;;8.88;100.00;100529.53;8358899;28;20041;-53
2022/12/25 00:39:18;;;;;;;14.57;5.70;;;;;;;8.83;100.00;100526.34;8360048;28;20084;-55
2022/12/25 00:43:19;;;;;;;13.02;5.30;;;;;;;8.88;100.00;100532.22;8358901;28;20048;-51
2022/12/25 00:47:19;;;;;;;15.77;6.13;;;;;;;8.95;100.00;100525.31;8358335;28;20120;-52
2022/12/25 00:51:20;;;;;;;19.80;5.97;;;;;;;8.98;100.00;100527.75;8358060;28;20490;-52
2022/12/25 00:55:21;;;;;;;10.75;5.45;;;;;;;9.01;100.00;100532.88;8360056;28;20072;-53
2022/12/25 00:59:21;;;;;;;10.10;5.50;;;;;;;9.08;100.00;100536.75;8355119;28;20510;-51
2022/12/25 01:03:23;;;;;;;12.75;5.00;;;;;;;9.08;100.00;100539.47;8331364;28;20041;-53
2022/12/25 01:07:25;;;;;;;11.18;4.95;;;;;;;9.07;100.00;100535.06;8356183;28;20048;-53
2022/12/25 01:11:27;;;;;;;13.10;4.78;;;;;;;9.13;100.00;100542.63;8357690;28;20045;-52
2022/12/25 01:15:27;;;;;;;15.82;5.10;;;;;;;9.17;100.00;100546.78;8359216;28;20124;-51
2022/12/25 01:19:28;;;;;;;6.97;3.92;;;;;;;9.17;100.00;100541.38;8340897;28;20091;-55
2022/12/25 01:23:28;;;;;;;7.22;3.75;;;;;;;9.22;100.00;100541.84;8357986;28;20045;-53
2022/12/25 01:27:30;;;;;;;17.70;4.72;;;;;;;9.26;100.00;100535.19;8340200;28;20045;-54
2022/12/25 01:31:31;;;;;;;11.25;4.20;;;;;;;9.23;100.00;100530.06;8357645;28;20037;-52
2022/12/25 01:35:31;;;;;;;12.15;4.40;;;;;;;9.28;100.00;100531.41;8358306;28;20075;-51
2022/12/25 01:39:32;;;;;;;10.35;4.15;;;;;;;9.26;100.00;100530.66;8358634;28;20044;-51
2022/12/25 01:43:33;;;;;;;8.82;4.20;;;;;;;9.35;100.00;100531.72;8357034;28;20037;-52
2022/12/25 01:47:34;;;;;;;7.28;3.47;;;;;;;9.34;100.00;100538.94;8357693;28;20191;-55
2022/12/25 01:51:42;;;;;;;13.65;3.78;;;;;;;9.35;100.00;100534.41;8357953;28;20493;-55
2022/12/25 01:55:46;;;;;;;12.98;4.53;;;;;;;9.33;100.00;100541.78;8357336;28;20043;-54
2022/12/25 01:59:47;;;;;;;11.45;4.05;;;;;;;9.31;100.00;100554.56;8339557;28;20085;-52
2022/12/25 02:03:48;;;;;;;8.98;4.20;;;;;;;9.41;100.00;100550.94;8355581;28;20087;-51
2022/12/25 02:07:49;;;;;;;11.25;3.92;;;;;;;9.49;100.00;100543.00;8356266;28;20041;-51
2022/12/25 02:11:57;;;;;;;6.55;2.92;;;;;;;9.52;100.00;100548.13;8357088;28;20048;-54
2022/12/25 02:16:12;;;;;;;5.72;3.22;;;;;;;9.55;100.00;100541.63;8357923;28;20033;-52
2022/12/25 02:20:42;;;;;;;7.63;3.78;;;;;;;9.49;100.00;100542.19;8351951;28;20055;-54
2022/12/25 02:25:23;;;;;;;12.02;4.25;;;;;;;9.31;100.00;100549.16;8356253;28;20044;-51
2022/12/25 02:29:41;;;;;;;8.10;3.47;;;;;;;9.32;100.00;100548.16;8355902;28;20045;-52
2022/12/25 02:34:05;;;;;;;12.13;3.50;;;;;;;9.36;100.00;100553.16;8358503;28;20071;-52
2022/12/25 02:38:15;;;;;;;8.27;3.75;;;;;;;9.33;100.00;100544.50;8355523;28;20044;-51
2022/12/25 03:06:41;;;;;;;8.00;3.92;;;;;;;9.34;100.00;100556.97;8355627;28;20092;-55
2022/12/25 03:08:48;;;;;;;9.43;4.10;;;;;;;9.16;100.00;100553.16;8323419;28;20041;-55
2022/12/25 03:12:56;;;;;;;9.18;4.40;;;;;;;9.09;100.00;100543.88;8321798;28;20033;-51
2022/12/25 03:16:58;;;;;;;7.97;4.07;;;;;;;9.13;100.00;100537.25;8321775;28;20499;-52
2022/12/25 03:31:13;;;;;;;6.85;4.13;;;;;;;9.27;100.00;100520.75;8355092;28;20040;-53
2022/12/25 04:36:18;;;;;;;11.32;4.88;;;;;;;9.13;100.00;100499.47;8313410;28;20042;-52
2022/12/25 04:40:08;;;;;;;12.63;4.35;;;;;;;9.04;100.00;100497.56;8314783;28;20052;-52
2022/12/25 04:44:09;;;;;;;11.82;3.78;;;;;;;8.99;100.00;100494.41;8314778;28;20165;-53
2022/12/25 04:48:09;;;;;;;10.85;4.13;;;;;;;8.98;100.00;100484.63;8299875;28;20095;-52
2022/12/25 04:52:10;;;;;;;11.82;4.60;;;;;;;9.06;100.00;100488.34;8293150;28;20499;-52
2022/12/25 04:56:10;;;;;;;16.45;4.15;;;;;;;9.24;100.00;100483.25;8293613;28;20116;-50
2022/12/25 05:00:11;;;;;;;10.45;4.18;;;;;;;9.27;100.00;100486.50;8291946;28;20510;-50
2022/12/25 05:04:12;;;;;;;9.63;3.97;;;;;;;9.34;100.00;100478.75;8292078;28;20580;-50
2022/12/25 05:08:12;;;;;;;12.98;5.38;;;;;;;9.32;100.00;100467.22;8292843;28;20380;-51
2022/12/25 05:12:13;;;;;;;12.95;4.10;;;;;;;9.31;100.00;100465.53;8292642;28;20034;-52
2022/12/25 05:16:17;;;;;;;12.07;4.82;;;;;;;9.28;100.00;100441.50;8307589;28;20034;-50
2022/12/25 05:20:17;;;;;;;12.03;4.60;;;;;;;9.27;100.00;100432.56;8306415;28;20064;-52
2022/12/25 05:24:18;;;;;;;8.93;4.10;;;;;;;9.23;100.00;100454.53;8291086;28;20037;-50
2022/12/25 05:28:19;;;;;;;8.98;3.83;;;;;;;9.22;100.00;100452.84;8292333;28;20037;-49
2022/12/25 05:32:20;;;;;;;8.48;3.92;;;;;;;9.22;100.00;100444.75;8291262;28;20100;-53
2022/12/25 05:36:20;;;;;;;10.00;3.40;;;;;;;9.28;100.00;100441.50;8291623;28;20085;-53
2022/12/25 05:40:21;;;;;;;9.02;3.45;;;;;;;9.32;100.00;100443.81;8291533;28;20132;-50
2022/12/25 05:44:22;;;;;;;12.00;3.85;;;;;;;9.34;100.00;100433.72;8289870;28;20030;-50
2022/12/25 05:48:23;;;;;;;9.40;3.35;;;;;;;9.40;100.00;100424.25;8291523;28;20588;-50
2022/12/25 05:52:23;;;;;;;10.35;3.33;;;;;;;9.41;100.00;100420.56;8290992;28;20038;-51
2022/12/25 05:56:24;;;;;;;9.13;3.40;;;;;;;9.44;100.00;100414.88;8290204;28;20030;-53
2022/12/25 06:00:24;;;;;;;10.68;3.10;;;;;;;9.50;100.00;100414.34;8289618;28;20046;-50
2022/12/25 06:04:25;;;;;;;8.30;3.15;;;;;;;9.57;100.00;100410.97;8290005;28;20038;-49
2022/12/25 06:08:26;;;;;;;6.88;3.00;;;;;;;9.63;100.00;100414.94;8290921;28;20042;-51
2022/12/25 06:12:26;;;;;;;8.50;2.88;;;;;;;9.72;100.00;100431.19;8305725;28;20453;-50
2022/12/25 06:16:27;;;;;;;9.07;2.75;;;;;;;9.78;100.00;100411.75;8288253;28;20041;-51
2022/12/25 06:20:27;;;;;;;10.40;2.40;;;;;;;9.84;100.00;100384.19;8287578;28;20042;-54
2022/12/25 06:24:28;;;;;;;10.00;2.53;;;;;;;9.91;100.00;100395.28;8287313;28;20037;-51
2022/12/25 06:28:28;;;;;;;9.52;2.70;;;;;;;9.90;100.00;100386.34;8286839;28;20124;-54
2022/12/25 06:32:29;;;;;;;8.77;2.90;;;;;;;9.90;100.00;100369.28;8288171;28;20496;-51
2022/12/25 06:36:30;;;;;;;7.75;2.75;;;;;;;9.89;100.00;100351.38;8289959;28;20045;-54
2022/12/25 06:40:30;;;;;;;7.25;2.30;;;;;;;9.89;100.00;100356.78;8289681;28;20127;-54
2022/12/25 06:44:32;;;;;;;9.55;3.10;;;;;;;9.95;100.00;100362.44;8289560;28;20045;-51
2022/12/25 06:48:34;;;;;;;8.93;2.50;;;;;;;9.97;100.00;100370.41;8289817;28;20088;-50
2022/12/25 06:52:34;;;;;;;6.38;2.63;;;;;;;10.07;100.00;100365.94;8294994;28;20490;-52
2022/12/25 06:56:35;;;;;;;8.00;2.30;;;;;;;10.08;100.00;100356.81;8322234;28;20410;-52
2022/12/25 07:00:35;;;;;;;8.13;2.20;;;;;;;10.17;100.00;100320.00;8292736;28;20042;-52
2022/12/25 07:04:39;;;;;;;7.05;1.85;;;;;;;10.32;100.00;100329.38;8276741;28;20066;-54
2022/12/25 07:08:40;;;;;;;10.60;1.73;;;;;;;10.33;100.00;100304.91;8263741;28;20427;-51
2022/12/25 07:12:40;;;;;;;12.93;2.47;;;;;;;10.38;100.00;100309.88;8267835;28;20304;-53
2022/12/25 07:16:41;;;;;;;12.82;3.17;;;;;;;10.37;100.00;100314.41;8281329;28;20385;-54
2022/12/25 07:20:42;;;;;;;9.23;3.22;;;;;;;10.43;100.00;100308.44;8286901;28;20050;-50
2022/12/25 07:24:42;;;;;;;9.50;2.53;;;;;;;10.48;100.00;100295.34;8287964;28;20518;-51
2022/12/25 07:28:43;;;;;;;9.30;2.63;;;;;;;10.45;100.00;100311.00;8282549;28;20103;-54
2022/12/25 07:32:44;;;;;;;16.35;3.28;;;;;;;10.41;100.00;100296.94;8284469;28;20033;-50
2022/12/25 07:36:45;;;;;;;3.97;2.63;;;;;;;10.43;100.00;100313.84;8288385;28;20526;-54
2022/12/25 07:40:46;;;;;;;8.50;2.97;;;;;;;10.47;100.00;100314.41;8281618;28;20043;-50
2022/12/25 07:44:47;;;;;;;6.53;3.60;;;;;;;10.44;100.00;100310.16;8254027;28;20038;-53
2022/12/25 07:48:48;;;;;;;12.18;3.38;;;;;;;10.53;100.00;100322.81;8284486;28;20057;-54
2022/12/25 07:52:49;;;;;;;15.55;3.70;;;;;;;10.51;100.00;100303.16;8285552;28;20408;-50
2022/12/25 07:56:51;;;;;;;19.63;3.88;;;;;;;10.46;100.00;100291.94;8288383;28;20038;-50
2022/12/25 08:00:51;;;;;;;14.00;3.67;;;;;;;10.44;100.00;100302.06;8284369;28;20449;-51
2022/12/25 08:04:52;;;;;;;14.93;4.07;;;;;;;10.44;100.00;100293.94;8286620;28;20030;-51
2022/12/25 08:08:53;;;;;;;8.35;3.80;;;;;;;10.48;100.00;100289.94;8284318;28;20038;-51
2022/12/25 08:13:15;;;;;;;8.70;3.92;;;;;;;10.49;100.00;100280.00;8287319;28;20095;-51
2022/12/25 08:17:16;;;;;;;13.25;4.72;;;;;;;10.50;100.00;100293.38;8280239;28;20038;-53
2022/12/25 08:21:16;;;;;;;13.68;5.40;;;;;;;10.50;100.00;100296.06;8279461;28;20121;-53
2022/12/25 08:25:17;;;;;;;17.48;5.97;;;;;;;10.51;100.00;100273.44;8286896;28;20042;-51
2022/12/25 08:29:18;;;;;;;11.90;6.30;;;;;;;10.45;100.00;100244.28;8292239;28;20038;-53
2022/12/25 08:33:19;;;;;;;11.27;6.55;;;;;;;10.50;100.00;100263.63;8291529;28;20042;-53
2022/12/25 08:37:19;;;;;;;12.27;6.35;;;;;;;10.50;100.00;100269.03;8261805;28;20132;-50
2022/12/25 08:41:20;;;;;;;14.70;6.07;;;;;;;10.53;100.00;100276.00;8260965;28;20035;-51
2022/12/25 08:45:20;;;;;;;17.27;8.05;;;;;;;10.51;100.00;100278.84;8284453;28;20045;-52
2022/12/25 08:49:21;;;;;;;12.15;8.05;;;;;;;10.52;100.00;100275.13;8293139;28;20065;-52
2022/12/25 08:53:22;;;;;;;17.65;6.65;;;;;;;10.54;100.00;100259.63;8292404;28;20139;-50
2022/12/25 08:57:23;;;;;;;9.93;5.88;;;;;;;10.53;100.00;100271.47;8313666;28;20045;-51
2022/12/25 09:01:24;;;;;;;13.73;6.80;;;;;;;10.59;100.00;100270.88;8329514;28;20057;-53
2022/12/25 09:05:25;;;;;;;10.73;6.85;;;;;;;10.62;100.00;100267.88;8351630;28;20048;-53
2022/12/25 09:09:27;;;;;;;11.20;7.03;;;;;;;10.60;100.00;100256.34;8357854;28;20167;-50
2022/12/25 09:13:28;;;;;;;16.40;5.90;;;;;;;10.57;100.00;100251.22;8339014;28;20557;-50
2022/12/25 09:17:28;;;;;;;11.45;5.65;;;;;;;10.62;100.00;100270.59;8358010;28;20387;-52
2022/12/25 09:21:29;;;;;;;11.32;5.72;;;;;;;10.65;100.00;100275.69;8342821;28;20038;-50
2022/12/25 09:25:29;;;;;;;6.30;5.13;;;;;;;10.73;100.00;100288.47;8326544;28;20049;-52
2022/12/25 09:29:30;;;;;;;9.90;5.40;;;;;;;10.72;100.00;100298.44;8348538;28;20045;-51
2022/12/25 09:33:31;;;;;;;9.95;4.88;;;;;;;10.75;100.00;100306.25;8327417;28;20525;-53
2022/12/25 09:37:32;;;;;;;5.72;3.83;;;;;;;10.75;100.00;100302.69;8333262;28;20470;-51
2022/12/25 09:45:47;;;;;;;13.90;5.50;;;;;;;10.72;100.00;100325.47;8355965;27;20404;-51
2022/12/25 09:50:14;;;;;;;10.75;6.47;;;;;;;10.67;100.00;100322.34;8313485;28;20037;-50
2022/12/25 09:54:21;;;;;;;11.50;6.70;;;;;;;10.63;100.00;100320.94;8316475;28;20096;-52
2022/12/25 09:58:22;;;;;;;14.63;6.30;;;;;;;10.61;100.00;100317.50;8307496;28;20048;-55
2022/12/25 10:02:41;;;;;;;12.00;5.88;;;;;;;10.57;100.00;100305.28;8295620;28;20044;-52
2022/12/25 10:06:58;;;;;;;14.38;6.55;;;;;;;10.59;100.00;100297.03;8314771;28;20454;-53
2022/12/25 10:11:26;;;;;;;11.38;7.07;;;;;;;10.60;100.00;100299.59;8315834;28;20034;-55
2022/12/25 10:15:37;;;;;;;15.13;6.75;;;;;;;10.67;100.00;100291.75;8315950;28;20077;-55
2022/12/25 10:19:49;;;;;;;17.17;6.88;;;;;;;10.71;100.00;100272.41;8315748;28;20766;-51
2022/12/25 10:24:04;;;;;;;14.05;7.63;;;;;;;10.78;100.00;100270.81;8315827;28;20034;-54
2022/12/25 10:28:13;;;;;;;11.40;6.35;;;;;;;10.83;100.00;100248.72;8313786;28;20042;-51
2022/12/25 10:32:14;;;;;;;18.73;8.32;;;;;;;10.81;100.00;100243.47;8298231;28;20041;-51
2022/12/25 10:36:20;;;;;;;13.98;7.88;;;;;;;10.82;100.00;100242.44;8312291;28;20048;-53
2022/12/25 10:40:43;;;;;;;16.45;7.22;;;;;;;10.79;100.00;100248.16;8314943;28;20046;-52
2022/12/25 10:45:01;;;;;;;19.13;7.65;;;;;;;10.81;100.00;100246.16;8306727;28;20025;-54
2022/12/25 10:49:02;;;;;;;17.85;7.72;;;;;;;10.79;100.00;100245.47;8305527;28;20046;-53
2022/12/25 10:53:05;;;;;;;20.35;8.57;;;;;;;10.78;100.00;100232.94;8309837;28;20084;-52
2022/12/25 11:01:19;;;;;;;13.75;7.30;;;;;;;10.86;100.00;100197.03;8386498;27;20382;-51
2022/12/25 11:05:30;;;;;;;16.08;6.72;;;;;;;10.86;100.00;100154.59;8365011;28;20037;-53
2022/12/25 11:09:31;;;;;;;13.38;7.82;;;;;;;10.94;100.00;100145.75;8356246;28;20487;-51
2022/12/25 11:13:39;;;;;;;14.63;6.88;;;;;;;10.97;100.00;100124.66;8355925;28;20144;-51
2022/12/25 11:17:48;;;;;;;13.10;7.35;;;;;;;11.03;100.00;100128.59;8345045;28;20037;-52
2022/12/25 11:21:51;;;;;;;12.60;6.93;;;;;;;11.10;100.00;100121.59;8344689;28;20045;-52
2022/12/25 11:26:10;;;;;;;16.10;8.00;;;;;;;11.15;100.00;100112.00;8369214;28;20332;-52
2022/12/25 11:30:14;;;;;;;13.13;6.78;;;;;;;11.19;100.00;100099.03;8346027;28;20380;-51
2022/12/25 11:34:40;;;;;;;14.93;7.23;;;;;;;11.21;100.00;100091.59;8359756;28;20040;-54
2022/12/25 11:38:41;;;;;;;15.25;7.57;;;;;;;11.22;100.00;100083.31;8339613;28;20510;-54
2022/12/25 11:42:48;;;;;;;18.52;8.75;;;;;;;11.25;100.00;100064.06;8373156;28;20498;-55
2022/12/25 11:46:50;;;;;;;17.83;8.63;;;;;;;11.30;100.00;100061.75;8377177;28;20037;-55
2022/12/25 11:50:57;;;;;;;19.70;8.38;;;;;;;11.35;100.00;100064.81;8376597;28;20055;-53
2022/12/25 11:55:12;;;;;;;18.58;8.80;;;;;;;11.38;100.00;100045.56;8376714;28;20052;-54
2022/12/25 11:59:33;;;;;;;13.63;8.57;;;;;;;11.38;100.00;100039.31;8376460;28;20048;-51
2022/12/25 12:03:37;;;;;;;18.33;9.13;;;;;;;11.46;100.00;100047.47;8377352;28;20252;-55
2022/12/25 12:07:51;;;;;;;21.63;10.25;;;;;;;11.46;100.00;100039.34;8376875;28;20344;-55
2022/12/25 12:12:07;;;;;;;17.58;9.13;;;;;;;11.49;100.00;100039.91;8357760;28;20102;-51
2022/12/25 12:16:09;;;;;;;18.17;8.30;;;;;;;11.49;100.00;100045.31;8354171;28;20128;-51
2022/12/25 12:20:25;;;;;;;14.57;7.25;;;;;;;11.56;100.00;100040.97;8353540;28;20044;-51
2022/12/25 12:24:34;;;;;;;14.95;7.95;;;;;;;11.70;100.00;100043.13;8352329;28;20314;-53
2022/12/25 12:28:44;;;;;;;11.68;8.07;;;;;;;11.95;100.00;100046.00;8353325;28;20078;-51
2022/12/25 12:32:51;;;;;;;10.63;7.03;;;;;;;12.01;100.00;100034.53;8355803;28;20049;-54
2022/12/25 12:37:00;;;;;;;14.90;7.63;;;;;;;12.12;100.00;100026.09;8353508;28;20052;-55
2022/12/25 12:41:05;;;;;;;16.23;7.90;;;;;;;12.20;100.00;100020.72;8352235;28;20045;-55
2022/12/25 12:45:16;;;;;;;13.05;7.60;;;;;;;12.35;100.00;100021.78;8352839;28;20127;-53
2022/12/25 12:49:26;;;;;;;16.02;8.93;;;;;;;12.41;100.00;100019.25;8353818;28;20221;-52
2022/12/25 12:53:31;;;;;;;12.60;8.80;;;;;;;12.46;100.00;100016.91;8350241;28;20056;-53
2022/12/25 12:57:38;;;;;;;12.13;8.85;;;;;;;12.49;100.00;100010.31;8349101;28;20605;-52
2022/12/25 13:02:18;;;;;;;13.60;8.90;;;;;;;12.52;100.00;100013.53;8353019;28;20132;-51
2022/12/25 13:06:42;;;;;;;17.67;9.45;;;;;;;12.57;100.00;99999.50;8349715;28;20075;-51
2022/12/25 13:10:48;;;;;;;13.52;9.00;;;;;;;12.57;100.00;99984.09;8352967;28;20078;-51
2022/12/25 13:14:49;;;;;;;12.43;7.80;;;;;;;12.70;100.00;99973.59;8351672;28;20091;-52
2022/12/25 13:18:52;;;;;;;15.35;7.63;;;;;;;12.75;100.00;99981.22;8351239;28;20470;-52
2022/12/25 13:22:52;;;;;;;11.40;8.38;;;;;;;12.80;100.00;99993.25;8351376;28;20094;-53
2022/12/25 13:26:53;;;;;;;12.20;8.75;;;;;;;12.81;100.00;99969.69;8352389;28;20089;-52
2022/12/25 13:31:06;;;;;;;12.90;8.38;;;;;;;12.83;100.00;99986.63;8349574;28;20052;-51
2022/12/25 13:35:13;;;;;;;8.57;5.57;;;;;;;13.02;100.00;99975.53;8372829;28;20036;-55
2022/12/25 13:39:16;;;;;;;8.27;5.75;;;;;;;13.12;100.00;99984.34;8323473;28;20037;-52
2022/12/25 13:43:17;;;;;;;10.98;6.00;;;;;;;13.23;100.00;99986.69;8319006;28;20047;-51
2022/12/25 13:47:24;;;;;;;8.65;5.75;;;;;;;13.26;100.00;99986.34;8319512;28;20037;-52
2022/12/25 13:51:26;;;;;;;8.27;5.00;;;;;;;13.23;100.00;99973.09;8319060;28;20410;-55
2022/12/25 13:55:29;;;;;;;7.13;5.20;;;;;;;13.33;100.00;99969.19;8318608;28;20051;-55
2022/12/25 13:59:30;;;;;;;8.60;5.10;;;;;;;13.41;100.00;99984.63;8332065;28;20091;-52
2022/12/25 14:03:46;;;;;;;10.32;5.97;;;;;;;13.37;100.00;99991.44;8318418;28;20116;-55
2022/12/25 14:07:57;;;;;;;11.13;6.47;;;;;;;13.32;100.00;100002.81;8318727;28;20064;-53
2022/12/25 14:11:57;;;;;;;6.13;4.95;;;;;;;13.48;100.00;99997.34;8316465;28;20042;-52
2022/12/25 14:15:59;;;;;;;13.02;5.45;;;;;;;13.42;100.00;99997.22;8315534;28;20503;-53
2022/12/25 14:20:00;;;;;;;11.52;7.00;;;;;;;13.46;100.00;100001.28;8315634;28;20446;-52
2022/12/25 14:24:01;;;;;;;14.02;7.32;;;;;;;13.51;100.00;99990.75;8318061;28;20046;-53
2022/12/25 14:28:08;;;;;;;13.52;6.88;;;;;;;13.63;100.00;100000.22;8325687;28;20132;-55
2022/12/25 14:32:18;;;;;;;14.05;7.97;;;;;;;13.66;100.00;99986.28;8313479;28;20048;-54
2022/12/25 14:36:19;;;;;;;11.52;6.60;;;;;;;13.67;100.00;100005.13;8332015;28;20054;-52
2022/12/25 14:40:35;;;;;;;7.78;5.53;;;;;;;13.39;100.00;100001.09;8312273;28;20506;-53
2022/12/25 14:44:38;;;;;;;11.57;5.63;;;;;;;13.37;100.00;99996.88;8315402;28;20037;-54
2022/12/25 14:48:39;;;;;;;11.85;6.93;;;;;;;13.42;100.00;99975.50;8316559;28;20486;-56
2022/12/25 14:52:43;;;;;;;12.10;6.68;;;;;;;13.41;100.00;99973.78;8314382;28;20041;-52
2022/12/25 14:56:47;;;;;;;10.93;6.22;;;;;;;13.38;100.00;99974.13;8316736;28;20068;-53
2022/12/25 15:00:58;;;;;;;22.70;12.87;;;;;;;13.21;100.00;99984.13;8316807;28;20055;-55
2022/12/25 15:04:59;;;;;;;12.07;7.15;;;;;;;13.14;100.00;99972.28;8318298;28;20303;-52
2022/12/25 15:09:02;;;;;;;8.45;5.70;;;;;;;13.29;100.00;99958.84;8316764;28;20353;-52
2022/12/25 15:13:03;;;;;;;8.82;4.65;;;;;;;13.22;100.00;99957.84;8311631;28;20095;-52
2022/12/25 15:17:05;;;;;;;12.13;6.00;;;;;;;13.20;100.00;99951.72;8328392;28;20494;-52
2022/12/25 15:21:14;;;;;;;8.73;4.97;;;;;;;13.22;100.00;99952.41;8333005;28;20055;-52
2022/12/25 15:25:15;;;;;;;7.78;5.05;;;;;;;13.31;100.00;99952.25;8331141;28;20457;-53
2022/12/25 15:29:16;;;;;;;10.73;4.10;;;;;;;13.41;100.00;99963.78;8327017;28;20176;-53
2022/12/25 15:33:18;;;;;;;7.57;4.95;;;;;;;13.52;100.00;99949.00;8347700;28;20098;-52
2022/12/25 15:37:18;;;;;;;9.73;4.95;;;;;;;13.62;100.00;99955.06;8350682;28;20410;-53
2022/12/25 15:42:24;;;;;;;8.88;4.72;;;;;;;13.52;100.00;99957.13;8350468;28;20055;-52
2022/12/25 15:45:45;;;;;;;6.38;4.15;;;;;;;13.47;100.00;99945.94;8330444;28;20076;-52
2022/12/25 15:49:46;;;;;;;8.27;4.50;;;;;;;13.49;100.00;99947.47;8330064;28;20297;-53
2022/12/25 15:53:47;;;;;;;10.00;4.47;;;;;;;13.50;100.00;99941.00;8323488;28;20042;-52
2022/12/25 15:57:48;;;;;;;6.68;4.28;;;;;;;13.62;100.00;99957.78;8323164;28;20056;-56
2022/12/25 16:01:52;;;;;;;10.07;3.75;;;;;;;13.62;100.00;99955.06;8344611;28;20064;-54
2022/12/25 16:05:53;;;;;;;6.30;3.90;;;;;;;13.69;100.00;99945.19;8350587;28;20095;-53
2022/12/25 16:09:54;;;;;;;12.00;3.80;;;;;;;13.78;100.00;99944.16;8321935;28;20045;-52
2022/12/25 16:13:54;;;;;;;5.43;3.97;;;;;;;13.75;100.00;99934.47;8322263;28;20052;-52
2022/12/25 16:17:55;;;;;;;7.05;3.00;;;;;;;14.00;98.18;99934.41;8332538;28;20441;-52
2022/12/25 16:21:55;;;;;;;6.47;3.33;;;;;;;13.94;98.62;99944.09;8327394;28;20051;-52
2022/12/25 16:25:56;;;;;;;7.63;3.05;;;;;;;13.88;99.19;99951.06;8318355;28;20037;-52
2022/12/25 16:29:56;;;;;;;5.22;3.60;;;;;;;13.87;99.11;99953.97;8322961;28;20041;-56
2022/12/25 16:33:57;;;;;;;5.88;3.85;;;;;;;13.93;98.19;99939.69;8347248;28;20224;-53
2022/12/25 16:37:58;;;;;;;6.90;3.95;;;;;;;14.03;97.18;99953.91;8356152;28;20397;-53
2022/12/25 16:41:59;;;;;;;9.75;5.30;;;;;;;14.01;97.48;99952.38;8322917;28;20073;-52
2022/12/25 16:46:00;;;;;;;7.80;4.55;;;;;;;14.11;96.34;99953.88;8319152;28;20053;-52
2022/12/25 16:50:02;;;;;;;7.85;3.80;;;;;;;14.14;95.82;99964.38;8315493;28;20042;-52
2022/12/25 16:54:03;;;;;;;6.20;3.13;;;;;;;14.23;95.59;99959.75;8317898;28;20069;-53
2022/12/25 16:58:04;;;;;;;8.00;2.92;;;;;;;14.09;96.64;99958.63;8320857;28;20037;-56
2022/12/25 17:02:05;;;;;;;4.07;2.47;;;;;;;14.14;95.99;99967.09;8327639;28;20044;-53
2022/12/25 17:06:18;;;;;;;3.83;3.08;;;;;;;14.16;95.60;99964.22;8322347;28;20034;-52
2022/12/25 17:10:20;;;;;;;4.43;2.55;;;;;;;13.88;98.08;99966.53;8335998;28;20033;-52
2022/12/25 17:14:20;;;;;;;6.50;3.13;;;;;;;13.89;98.04;99965.50;8317110;28;20021;-54
2022/12/25 17:18:21;;;;;;;5.75;2.80;;;;;;;13.94;97.10;99970.44;8314027;28;20031;-52
2022/12/25 17:22:21;;;;;;;4.00;2.70;;;;;;;13.94;97.20;99965.00;8315887;28;20037;-52
2022/12/25 17:26:23;;;;;;;3.80;2.75;;;;;;;13.76;98.09;99954.38;8315715;28;20029;-52
2022/12/25 17:30:23;;;;;;;7.35;3.00;;;;;;;13.82;97.70;99959.09;8318518;28;20116;-52
2022/12/25 17:34:24;;;;;;;7.72;2.80;;;;;;;13.90;96.83;99945.47;8328754;28;20045;-50
2022/12/25 17:38:25;;;;;;;8.57;2.83;;;;;;;13.98;95.67;99964.47;8320000;28;20037;-50
2022/12/25 17:42:40;;;;;;;6.20;3.17;;;;;;;13.83;97.47;99964.34;8327124;28;20111;-52
2022/12/25 17:46:40;;;;;;;5.72;3.13;;;;;;;13.88;97.31;99971.97;8320029;28;20042;-50
2022/12/25 17:50:41;;;;;;;5.30;3.22;;;;;;;13.77;98.17;99967.78;8323375;28;20061;-50
2022/12/25 17:54:42;;;;;;;4.47;2.70;;;;;;;13.88;97.41;99961.13;8344736;28;20495;-51
2022/12/25 17:58:43;;;;;;;4.97;3.03;;;;;;;14.07;95.99;99944.38;8318970;28;20403;-51
2022/12/25 18:02:45;;;;;;;6.82;3.22;;;;;;;14.15;95.36;99957.91;8344719;28;20042;-50
2022/12/25 18:06:46;;;;;;;5.97;3.17;;;;;;;13.96;96.64;99936.59;8314627;28;20049;-54
2022/12/25 18:10:46;;;;;;;4.80;3.50;;;;;;;13.76;97.99;99943.50;8315653;28;20040;-52
2022/12/25 18:14:47;;;;;;;3.42;2.72;;;;;;;13.87;96.73;99940.38;8316259;28;20114;-55
2022/12/25 18:18:47;;;;;;;5.35;3.47;;;;;;;13.74;97.14;99937.38;8315749;28;20049;-51
2022/12/25 18:22:48;;;;;;;5.28;3.20;;;;;;;13.49;99.32;99933.91;8315057;28;20511;-51
2022/12/25 18:26:48;;;;;;;5.13;3.10;;;;;;;13.35;100.00;99936.44;8315774;28;20120;-52
2022/12/25 18:30:49;;;;;;;4.00;2.53;;;;;;;13.46;100.00;99933.38;8327912;28;20041;-51
2022/12/25 18:34:52;;;;;;;7.53;3.17;;;;;;;13.40;100.00;99934.94;8313525;28;20041;-52
2022/12/25 18:38:54;;;;;;;6.55;3.03;;;;;;;13.23;100.00;99954.09;8312965;28;20469;-52
2022/12/25 18:42:54;;;;;;;3.60;2.80;;;;;;;13.19;100.00;99963.63;8311554;28;20041;-53
2022/12/25 18:46:55;;;;;;;4.78;3.30;;;;;;;13.44;100.00;99959.84;8311658;28;20632;-51
2022/12/25 18:50:59;;;;;;;6.47;3.60;;;;;;;13.46;100.00;99945.09;8344401;28;20060;-52
2022/12/25 18:55:00;;;;;;;4.55;3.10;;;;;;;13.48;100.00;99940.31;8369819;28;20063;-51
2022/12/25 18:59:01;;;;;;;8.13;3.42;;;;;;;13.45;100.00;99950.72;8309646;28;20038;-51
2022/12/25 19:03:01;;;;;;;6.05;3.53;;;;;;;13.49;100.00;99954.75;8321434;28;20545;-53
2022/12/25 19:07:02;;;;;;;5.30;3.50;;;;;;;13.60;100.00;99946.22;8308187;28;20481;-52
2022/12/25 19:16:30;;;;;;;5.18;3.95;;;;;;;13.48;100.00;99958.50;8316344;28;20115;-51
2022/12/25 19:20:30;;;;;;;5.45;2.70;;;;;;;13.63;100.00;99956.75;8349948;28;20344;-52
2022/12/25 19:24:59;;;;;;;6.90;3.38;;;;;;;13.79;99.69;99946.69;8352678;28;20155;-53
2022/12/25 19:28:59;;;;;;;4.75;2.85;;;;;;;13.87;99.19;99959.41;8319918;28;20049;-52
2022/12/25 19:33:00;;;;;;;6.63;3.20;;;;;;;13.92;98.92;99973.31;8317463;28;20045;-51
2022/12/25 19:37:00;;;;;;;4.88;3.15;;;;;;;13.97;98.34;99964.63;8334660;28;20107;-53
2022/12/25 19:41:11;;;;;;;4.32;2.50;;;;;;;13.99;98.30;99979.75;8319274;28;20049;-51
2022/12/25 19:45:12;;;;;;;3.78;2.60;;;;;;;14.03;97.94;99986.50;8319256;28;20503;-53
2022/12/25 19:49:13;;;;;;;5.95;2.55;;;;;;;13.96;98.91;99990.97;8331479;28;20040;-51
2022/12/25 19:53:15;;;;;;;4.38;3.15;;;;;;;13.88;99.84;99983.69;8353744;28;20052;-52
2022/12/25 19:57:16;;;;;;;5.45;3.10;;;;;;;13.78;100.00;99966.75;8365053;28;20041;-54
2022/12/25 20:01:19;;;;;;;4.78;3.45;;;;;;;13.62;100.00;99960.50;8352232;28;20063;-53
2022/12/25 20:05:19;;;;;;;5.28;3.03;;;;;;;13.40;100.00;99972.09;8351930;28;20037;-52
2022/12/25 20:09:20;;;;;;;7.60;3.47;;;;;;;13.28;100.00;99963.47;8351475;28;20549;-52
2022/12/25 20:13:21;;;;;;;11.75;4.95;;;;;;;13.13;100.00;99964.31;8351041;28;20033;-53
2022/12/25 20:17:22;;;;;;;10.00;5.65;;;;;;;12.93;100.00;99969.19;8334694;28;20033;-55
2022/12/25 20:21:23;;;;;;;8.38;5.30;;;;;;;12.95;100.00;99969.88;8319796;28;20042;-53
2022/12/25 20:25:24;;;;;;;5.15;3.72;;;;;;;13.04;100.00;99958.03;8322631;28;20772;-51
2022/12/25 20:29:24;;;;;;;4.35;3.70;;;;;;;13.02;100.00;99934.81;8318485;28;20109;-52
2022/12/25 20:33:26;;;;;;;5.90;4.18;;;;;;;12.82;100.00;99955.97;8319068;28;20477;-55